sensor_id;sensor_type;location;lat;lon;timestamp;temperature;humidity
17208;DHT22;8720;48.488;9.202;2022-09-02T00:02:22;17.40;49.60
17208;DHT22;8720;48.488;9.202;2022-09-02T00:04:49;17.40;49.60
17208;DHT22;8720;48.488;9.202;2022-09-02T00:07:17;17.40;49.30
17208;DHT22;8720;48.488;9.202;2022-09-02T00:09:45;17.30;49.20
17208;DHT22;8720;48.488;9.202;2022-09-02T00:12:12;17.30;49.40
17208;DHT22;8720;48.488;9.202;2022-09-02T00:14:40;17.30;49.30
17208;DHT22;8720;48.488;9.202;2022-09-02T00:17:08;17.40;49.60
17208;DHT22;8720;48.488;9.202;2022-09-02T00:19:35;17.30;49.50
17208;DHT22;8720;48.488;9.202;2022-09-02T00:22:03;17.30;49.50
17208;DHT22;8720;48.488;9.202;2022-09-02T00:24:30;17.30;49.50
17208;DHT22;8720;48.488;9.202;2022-09-02T00:26:59;17.30;49.40
17208;DHT22;8720;48.488;9.202;2022-09-02T00:29:27;17.20;49.60
17208;DHT22;8720;48.488;9.202;2022-09-02T00:31:56;17.20;49.50
17208;DHT22;8720;48.488;9.202;2022-09-02T00:34:24;17.20;49.60
17208;DHT22;8720;48.488;9.202;2022-09-02T00:36:52;17.20;49.80
17208;DHT22;8720;48.488;9.202;2022-09-02T00:39:19;17.10;49.70
17208;DHT22;8720;48.488;9.202;2022-09-02T00:41:46;17.10;49.90
17208;DHT22;8720;48.488;9.202;2022-09-02T00:44:16;17.10;50.00
17208;DHT22;8720;48.488;9.202;2022-09-02T00:46:45;17.00;50.20
17208;DHT22;8720;48.488;9.202;2022-09-02T00:49:16;17.00;50.20
17208;DHT22;8720;48.488;9.202;2022-09-02T00:51:51;16.90;50.40
17208;DHT22;8720;48.488;9.202;2022-09-02T00:54:22;16.90;50.60
17208;DHT22;8720;48.488;9.202;2022-09-02T00:56:52;16.80;50.50
17208;DHT22;8720;48.488;9.202;2022-09-02T00:59:26;16.80;50.60
17208;DHT22;8720;48.488;9.202;2022-09-02T01:02:03;16.80;50.90
17208;DHT22;8720;48.488;9.202;2022-09-02T01:04:30;16.70;50.60
17208;DHT22;8720;48.488;9.202;2022-09-02T01:06:58;16.70;50.70
17208;DHT22;8720;48.488;9.202;2022-09-02T01:09:25;16.60;51.00
17208;DHT22;8720;48.488;9.202;2022-09-02T01:11:53;16.60;51.10
17208;DHT22;8720;48.488;9.202;2022-09-02T01:14:22;16.60;51.10
17208;DHT22;8720;48.488;9.202;2022-09-02T01:16:52;16.50;51.30
17208;DHT22;8720;48.488;9.202;2022-09-02T01:19:25;16.50;51.50
17208;DHT22;8720;48.488;9.202;2022-09-02T01:21:57;16.50;51.50
17208;DHT22;8720;48.488;9.202;2022-09-02T01:24:29;16.40;51.40
17208;DHT22;8720;48.488;9.202;2022-09-02T01:26:58;16.40;51.40
17208;DHT22;8720;48.488;9.202;2022-09-02T01:29:27;16.30;51.30
17208;DHT22;8720;48.488;9.202;2022-09-02T01:31:55;16.30;51.50
17208;DHT22;8720;48.488;9.202;2022-09-02T01:34:22;16.30;51.70
17208;DHT22;8720;48.488;9.202;2022-09-02T01:36:50;16.30;51.70
17208;DHT22;8720;48.488;9.202;2022-09-02T01:39:19;16.20;51.60
17208;DHT22;8720;48.488;9.202;2022-09-02T01:41:46;16.20;51.80
17208;DHT22;8720;48.488;9.202;2022-09-02T01:44:14;16.20;51.80
17208;DHT22;8720;48.488;9.202;2022-09-02T01:46:43;16.10;51.80
17208;DHT22;8720;48.488;9.202;2022-09-02T01:49:11;16.10;51.80
17208;DHT22;8720;48.488;9.202;2022-09-02T01:51:39;16.10;51.70
17208;DHT22;8720;48.488;9.202;2022-09-02T01:54:06;16.00;51.60
17208;DHT22;8720;48.488;9.202;2022-09-02T01:56:35;16.00;52.10
17208;DHT22;8720;48.488;9.202;2022-09-02T01:59:03;16.00;51.60
17208;DHT22;8720;48.488;9.202;2022-09-02T02:01:32;16.00;51.70
17208;DHT22;8720;48.488;9.202;2022-09-02T02:04:00;16.00;51.90
17208;DHT22;8720;48.488;9.202;2022-09-02T02:06:28;15.90;51.90
17208;DHT22;8720;48.488;9.202;2022-09-02T02:08:56;16.00;51.90
17208;DHT22;8720;48.488;9.202;2022-09-02T02:11:24;15.90;51.70
17208;DHT22;8720;48.488;9.202;2022-09-02T02:13:58;15.90;51.60
17208;DHT22;8720;48.488;9.202;2022-09-02T02:16:25;15.80;51.60
17208;DHT22;8720;48.488;9.202;2022-09-02T02:18:53;15.80;51.60
17208;DHT22;8720;48.488;9.202;2022-09-02T02:21:21;15.80;51.70
17208;DHT22;8720;48.488;9.202;2022-09-02T02:23:50;15.80;51.90
17208;DHT22;8720;48.488;9.202;2022-09-02T02:26:17;15.80;52.00
17208;DHT22;8720;48.488;9.202;2022-09-02T02:28:45;15.70;51.80
17208;DHT22;8720;48.488;9.202;2022-09-02T02:31:14;15.70;51.90
17208;DHT22;8720;48.488;9.202;2022-09-02T02:33:41;15.70;52.10
17208;DHT22;8720;48.488;9.202;2022-09-02T02:36:10;15.70;51.90
17208;DHT22;8720;48.488;9.202;2022-09-02T02:38:38;15.60;51.90
17208;DHT22;8720;48.488;9.202;2022-09-02T02:41:07;15.60;52.00
17208;DHT22;8720;48.488;9.202;2022-09-02T02:43:37;15.60;52.00
17208;DHT22;8720;48.488;9.202;2022-09-02T02:46:06;15.50;52.10
17208;DHT22;8720;48.488;9.202;2022-09-02T02:48:38;15.50;52.20
17208;DHT22;8720;48.488;9.202;2022-09-02T02:51:06;15.50;52.20
17208;DHT22;8720;48.488;9.202;2022-09-02T02:53:34;15.50;51.70
17208;DHT22;8720;48.488;9.202;2022-09-02T02:56:02;15.50;51.40
17208;DHT22;8720;48.488;9.202;2022-09-02T02:58:31;15.50;51.40
17208;DHT22;8720;48.488;9.202;2022-09-02T03:01:00;15.60;51.30
17208;DHT22;8720;48.488;9.202;2022-09-02T03:03:28;15.60;51.10
17208;DHT22;8720;48.488;9.202;2022-09-02T03:05:58;15.70;51.00
17208;DHT22;8720;48.488;9.202;2022-09-02T03:08:27;15.80;50.80
17208;DHT22;8720;48.488;9.202;2022-09-02T03:10:55;15.90;50.70
17208;DHT22;8720;48.488;9.202;2022-09-02T03:13:26;16.00;50.60
17208;DHT22;8720;48.488;9.202;2022-09-02T03:15:53;16.10;50.70
17208;DHT22;8720;48.488;9.202;2022-09-02T03:18:21;16.20;50.60
17208;DHT22;8720;48.488;9.202;2022-09-02T03:20:49;16.20;51.40
17208;DHT22;8720;48.488;9.202;2022-09-02T03:23:18;16.30;50.80
17208;DHT22;8720;48.488;9.202;2022-09-02T03:25:48;16.30;50.50
17208;DHT22;8720;48.488;9.202;2022-09-02T03:28:25;16.30;50.30
17208;DHT22;8720;48.488;9.202;2022-09-02T03:30:53;16.30;50.20
17208;DHT22;8720;48.488;9.202;2022-09-02T03:33:20;16.30;50.30
17208;DHT22;8720;48.488;9.202;2022-09-02T03:35:47;16.30;50.10
17208;DHT22;8720;48.488;9.202;2022-09-02T03:38:15;16.20;49.90
17208;DHT22;8720;48.488;9.202;2022-09-02T03:40:45;16.30;49.90
17208;DHT22;8720;48.488;9.202;2022-09-02T03:43:12;16.30;49.80
17208;DHT22;8720;48.488;9.202;2022-09-02T03:45:41;16.30;49.80
17208;DHT22;8720;48.488;9.202;2022-09-02T03:48:12;16.40;49.90
17208;DHT22;8720;48.488;9.202;2022-09-02T03:50:43;16.40;49.80
17208;DHT22;8720;48.488;9.202;2022-09-02T03:53:16;16.50;49.80
17208;DHT22;8720;48.488;9.202;2022-09-02T03:55:45;16.50;49.70
17208;DHT22;8720;48.488;9.202;2022-09-02T03:58:13;16.60;49.60
17208;DHT22;8720;48.488;9.202;2022-09-02T04:00:41;16.60;49.60
17208;DHT22;8720;48.488;9.202;2022-09-02T04:03:10;16.70;49.50
17208;DHT22;8720;48.488;9.202;2022-09-02T04:05:37;16.70;49.50
17208;DHT22;8720;48.488;9.202;2022-09-02T04:08:04;16.80;49.40
17208;DHT22;8720;48.488;9.202;2022-09-02T04:10:32;16.80;49.30
17208;DHT22;8720;48.488;9.202;2022-09-02T04:13:00;16.80;49.30
17208;DHT22;8720;48.488;9.202;2022-09-02T04:15:28;16.80;49.20
17208;DHT22;8720;48.488;9.202;2022-09-02T04:21:55;16.90;49.10
17208;DHT22;8720;48.488;9.202;2022-09-02T04:24:23;16.90;49.20
17208;DHT22;8720;48.488;9.202;2022-09-02T04:26:50;17.00;49.20
17208;DHT22;8720;48.488;9.202;2022-09-02T04:29:19;16.90;49.20
17208;DHT22;8720;48.488;9.202;2022-09-02T04:31:49;17.00;49.20
17208;DHT22;8720;48.488;9.202;2022-09-02T04:34:17;17.00;49.30
17208;DHT22;8720;48.488;9.202;2022-09-02T04:36:46;17.00;49.20
17208;DHT22;8720;48.488;9.202;2022-09-02T04:39:14;17.00;49.20
17208;DHT22;8720;48.488;9.202;2022-09-02T04:41:42;17.00;49.20
17208;DHT22;8720;48.488;9.202;2022-09-02T04:44:12;17.00;49.20
17208;DHT22;8720;48.488;9.202;2022-09-02T04:46:44;16.90;49.10
17208;DHT22;8720;48.488;9.202;2022-09-02T04:49:16;17.00;49.30
17208;DHT22;8720;48.488;9.202;2022-09-02T04:51:44;17.00;49.20
17208;DHT22;8720;48.488;9.202;2022-09-02T04:54:13;17.10;49.20
17208;DHT22;8720;48.488;9.202;2022-09-02T04:56:43;17.10;49.20
17208;DHT22;8720;48.488;9.202;2022-09-02T04:59:11;17.10;49.10
17208;DHT22;8720;48.488;9.202;2022-09-02T05:01:44;17.20;49.10
17208;DHT22;8720;48.488;9.202;2022-09-02T05:04:16;17.20;49.00
17208;DHT22;8720;48.488;9.202;2022-09-02T05:06:48;17.20;49.00
17208;DHT22;8720;48.488;9.202;2022-09-02T05:09:18;17.20;49.00
17208;DHT22;8720;48.488;9.202;2022-09-02T05:11:51;17.20;49.00
17208;DHT22;8720;48.488;9.202;2022-09-02T05:14:23;17.30;49.00
17208;DHT22;8720;48.488;9.202;2022-09-02T05:16:54;17.30;49.00
17208;DHT22;8720;48.488;9.202;2022-09-02T05:19:23;17.30;49.00
17208;DHT22;8720;48.488;9.202;2022-09-02T05:21:52;17.30;49.00
17208;DHT22;8720;48.488;9.202;2022-09-02T05:24:26;17.30;49.00
17208;DHT22;8720;48.488;9.202;2022-09-02T05:26:57;17.40;49.20
17208;DHT22;8720;48.488;9.202;2022-09-02T05:29:25;17.30;49.00
17208;DHT22;8720;48.488;9.202;2022-09-02T05:31:57;17.40;49.00
17208;DHT22;8720;48.488;9.202;2022-09-02T05:34:25;17.40;49.20
17208;DHT22;8720;48.488;9.202;2022-09-02T05:36:56;17.30;49.20
17208;DHT22;8720;48.488;9.202;2022-09-02T05:39:26;17.40;49.50
17208;DHT22;8720;48.488;9.202;2022-09-02T05:41:54;17.40;49.60
17208;DHT22;8720;48.488;9.202;2022-09-02T05:44:22;17.40;49.60
17208;DHT22;8720;48.488;9.202;2022-09-02T05:46:49;17.40;49.70
17208;DHT22;8720;48.488;9.202;2022-09-02T05:49:18;17.40;49.70
17208;DHT22;8720;48.488;9.202;2022-09-02T05:51:57;17.40;49.80
17208;DHT22;8720;48.488;9.202;2022-09-02T05:54:31;17.40;49.70
17208;DHT22;8720;48.488;9.202;2022-09-02T05:57:06;17.40;50.00
17208;DHT22;8720;48.488;9.202;2022-09-02T05:59:39;17.40;49.90
17208;DHT22;8720;48.488;9.202;2022-09-02T06:02:13;17.40;49.70
17208;DHT22;8720;48.488;9.202;2022-09-02T06:04:46;17.40;49.50
17208;DHT22;8720;48.488;9.202;2022-09-02T06:07:17;17.40;49.50
17208;DHT22;8720;48.488;9.202;2022-09-02T06:09:49;17.50;49.70
17208;DHT22;8720;48.488;9.202;2022-09-02T06:12:18;17.50;49.60
17208;DHT22;8720;48.488;9.202;2022-09-02T06:14:48;17.60;49.60
17208;DHT22;8720;48.488;9.202;2022-09-02T06:17:18;17.70;49.70
17208;DHT22;8720;48.488;9.202;2022-09-02T06:19:50;17.80;50.20
17208;DHT22;8720;48.488;9.202;2022-09-02T06:22:20;18.20;50.70
17208;DHT22;8720;48.488;9.202;2022-09-02T06:24:47;18.70;51.00
17208;DHT22;8720;48.488;9.202;2022-09-02T06:27:21;19.40;50.90
17208;DHT22;8720;48.488;9.202;2022-09-02T06:29:51;20.10;50.60
17208;DHT22;8720;48.488;9.202;2022-09-02T06:32:21;20.90;50.10
17208;DHT22;8720;48.488;9.202;2022-09-02T06:34:54;21.80;49.50
17208;DHT22;8720;48.488;9.202;2022-09-02T06:37:24;22.60;48.60
17208;DHT22;8720;48.488;9.202;2022-09-02T06:39:52;23.30;48.10
17208;DHT22;8720;48.488;9.202;2022-09-02T06:42:22;24.10;47.50
17208;DHT22;8720;48.488;9.202;2022-09-02T06:45:19;24.80;47.00
17208;DHT22;8720;48.488;9.202;2022-09-02T06:47:49;25.60;45.70
17208;DHT22;8720;48.488;9.202;2022-09-02T06:50:19;26.30;44.80
17208;DHT22;8720;48.488;9.202;2022-09-02T06:52:46;26.80;43.50
17208;DHT22;8720;48.488;9.202;2022-09-02T06:55:15;27.40;42.80
17208;DHT22;8720;48.488;9.202;2022-09-02T06:57:43;28.00;42.30
17208;DHT22;8720;48.488;9.202;2022-09-02T07:00:13;28.50;41.40
17208;DHT22;8720;48.488;9.202;2022-09-02T07:02:41;28.90;40.70
17208;DHT22;8720;48.488;9.202;2022-09-02T07:05:32;29.30;39.90
17208;DHT22;8720;48.488;9.202;2022-09-02T07:07:58;29.80;38.40
17208;DHT22;8720;48.488;9.202;2022-09-02T07:10:26;30.10;38.70
17208;DHT22;8720;48.488;9.202;2022-09-02T07:12:54;30.50;36.90
17208;DHT22;8720;48.488;9.202;2022-09-02T07:15:22;30.80;36.20
17208;DHT22;8720;48.488;9.202;2022-09-02T07:17:50;31.10;35.50
17208;DHT22;8720;48.488;9.202;2022-09-02T07:20:29;31.20;34.90
17208;DHT22;8720;48.488;9.202;2022-09-02T07:23:00;31.40;34.80
17208;DHT22;8720;48.488;9.202;2022-09-02T07:25:30;31.40;34.30
17208;DHT22;8720;48.488;9.202;2022-09-02T07:27:58;31.40;34.50
17208;DHT22;8720;48.488;9.202;2022-09-02T07:30:29;31.20;33.90
17208;DHT22;8720;48.488;9.202;2022-09-02T07:33:03;31.10;33.80
17208;DHT22;8720;48.488;9.202;2022-09-02T07:35:32;30.90;33.90
17208;DHT22;8720;48.488;9.202;2022-09-02T07:38:03;30.80;33.90
17208;DHT22;8720;48.488;9.202;2022-09-02T07:40:32;30.60;33.30
17208;DHT22;8720;48.488;9.202;2022-09-02T07:43:02;30.40;33.70
17208;DHT22;8720;48.488;9.202;2022-09-02T07:45:34;30.20;33.60
17208;DHT22;8720;48.488;9.202;2022-09-02T07:48:03;30.00;33.90
17208;DHT22;8720;48.488;9.202;2022-09-02T07:50:35;29.80;33.80
17208;DHT22;8720;48.488;9.202;2022-09-02T07:53:07;29.50;33.70
17208;DHT22;8720;48.488;9.202;2022-09-02T07:55:36;29.20;33.50
17208;DHT22;8720;48.488;9.202;2022-09-02T07:58:06;29.00;33.90
17208;DHT22;8720;48.488;9.202;2022-09-02T08:00:34;28.80;34.30
17208;DHT22;8720;48.488;9.202;2022-09-02T08:03:08;28.60;34.40
17208;DHT22;8720;48.488;9.202;2022-09-02T08:05:42;28.40;34.60
17208;DHT22;8720;48.488;9.202;2022-09-02T08:08:13;28.20;34.90
17208;DHT22;8720;48.488;9.202;2022-09-02T08:10:43;28.00;35.60
17208;DHT22;8720;48.488;9.202;2022-09-02T08:13:11;27.80;35.40
17208;DHT22;8720;48.488;9.202;2022-09-02T08:15:39;27.60;35.60
17208;DHT22;8720;48.488;9.202;2022-09-02T08:18:06;27.50;35.90
17208;DHT22;8720;48.488;9.202;2022-09-02T08:20:34;27.40;36.00
17208;DHT22;8720;48.488;9.202;2022-09-02T08:23:02;27.30;36.60
17208;DHT22;8720;48.488;9.202;2022-09-02T08:25:32;27.10;36.50
17208;DHT22;8720;48.488;9.202;2022-09-02T08:28:00;26.90;36.30
17208;DHT22;8720;48.488;9.202;2022-09-02T08:30:29;26.80;37.10
17208;DHT22;8720;48.488;9.202;2022-09-02T08:32:56;26.50;36.20
17208;DHT22;8720;48.488;9.202;2022-09-02T08:35:23;26.40;36.30
17208;DHT22;8720;48.488;9.202;2022-09-02T08:37:51;26.30;36.00
17208;DHT22;8720;48.488;9.202;2022-09-02T08:40:20;26.10;35.70
17208;DHT22;8720;48.488;9.202;2022-09-02T08:42:53;26.00;35.50
17208;DHT22;8720;48.488;9.202;2022-09-02T08:45:24;25.90;35.20
17208;DHT22;8720;48.488;9.202;2022-09-02T08:48:03;25.80;35.00
17208;DHT22;8720;48.488;9.202;2022-09-02T08:50:36;25.70;34.60
17208;DHT22;8720;48.488;9.202;2022-09-02T08:53:10;25.70;35.10
17208;DHT22;8720;48.488;9.202;2022-09-02T08:55:47;25.60;34.90
17208;DHT22;8720;48.488;9.202;2022-09-02T08:58:22;25.50;35.20
17208;DHT22;8720;48.488;9.202;2022-09-02T09:00:59;25.40;35.00
17208;DHT22;8720;48.488;9.202;2022-09-02T09:03:36;25.40;34.90
17208;DHT22;8720;48.488;9.202;2022-09-02T09:06:15;25.40;34.90
17208;DHT22;8720;48.488;9.202;2022-09-02T09:08:54;25.30;34.60
17208;DHT22;8720;48.488;9.202;2022-09-02T09:11:30;25.20;34.80
17208;DHT22;8720;48.488;9.202;2022-09-02T09:14:18;25.20;34.80
17208;DHT22;8720;48.488;9.202;2022-09-02T09:16:57;25.10;35.00
17208;DHT22;8720;48.488;9.202;2022-09-02T09:19:34;25.10;34.90
17208;DHT22;8720;48.488;9.202;2022-09-02T09:22:11;25.00;35.00
17208;DHT22;8720;48.488;9.202;2022-09-02T09:24:42;25.00;35.20
17208;DHT22;8720;48.488;9.202;2022-09-02T09:27:13;25.00;35.30
17208;DHT22;8720;48.488;9.202;2022-09-02T09:29:43;24.90;35.40
17208;DHT22;8720;48.488;9.202;2022-09-02T09:32:16;24.90;35.20
17208;DHT22;8720;48.488;9.202;2022-09-02T09:34:57;24.80;35.20
17208;DHT22;8720;48.488;9.202;2022-09-02T09:37:32;24.80;35.20
17208;DHT22;8720;48.488;9.202;2022-09-02T09:40:25;24.80;35.60
17208;DHT22;8720;48.488;9.202;2022-09-02T09:42:57;24.70;35.40
17208;DHT22;8720;48.488;9.202;2022-09-02T09:45:41;24.70;35.90
17208;DHT22;8720;48.488;9.202;2022-09-02T09:48:29;24.60;36.00
17208;DHT22;8720;48.488;9.202;2022-09-02T09:51:12;24.60;35.90
17208;DHT22;8720;48.488;9.202;2022-09-02T09:53:42;24.60;35.70
17208;DHT22;8720;48.488;9.202;2022-09-02T09:56:28;24.60;36.10
17208;DHT22;8720;48.488;9.202;2022-09-02T09:58:58;24.60;36.00
17208;DHT22;8720;48.488;9.202;2022-09-02T10:01:29;24.60;36.00
17208;DHT22;8720;48.488;9.202;2022-09-02T10:04:01;24.60;35.90
17208;DHT22;8720;48.488;9.202;2022-09-02T10:06:38;24.50;35.70
17208;DHT22;8720;48.488;9.202;2022-09-02T10:09:24;24.50;35.50
17208;DHT22;8720;48.488;9.202;2022-09-02T10:11:58;24.50;35.70
17208;DHT22;8720;48.488;9.202;2022-09-02T10:14:32;24.40;35.60
17208;DHT22;8720;48.488;9.202;2022-09-02T10:17:21;24.30;35.80
17208;DHT22;8720;48.488;9.202;2022-09-02T10:20:03;24.30;36.10
17208;DHT22;8720;48.488;9.202;2022-09-02T10:25:55;24.20;35.90
17208;DHT22;8720;48.488;9.202;2022-09-02T10:28:57;24.20;36.40
17208;DHT22;8720;48.488;9.202;2022-09-02T10:31:40;24.20;35.90
17208;DHT22;8720;48.488;9.202;2022-09-02T10:34:20;24.20;36.20
17208;DHT22;8720;48.488;9.202;2022-09-02T10:37:08;24.20;36.50
17208;DHT22;8720;48.488;9.202;2022-09-02T10:40:05;24.20;36.20
17208;DHT22;8720;48.488;9.202;2022-09-02T10:42:45;24.20;36.40
17208;DHT22;8720;48.488;9.202;2022-09-02T10:45:23;24.20;35.80
17208;DHT22;8720;48.488;9.202;2022-09-02T10:48:20;24.20;36.10
17208;DHT22;8720;48.488;9.202;2022-09-02T10:51:03;24.20;36.00
17208;DHT22;8720;48.488;9.202;2022-09-02T10:53:45;24.20;36.10
17208;DHT22;8720;48.488;9.202;2022-09-02T10:56:24;24.20;36.60
17208;DHT22;8720;48.488;9.202;2022-09-02T10:58:58;24.20;36.80
17208;DHT22;8720;48.488;9.202;2022-09-02T11:01:41;24.20;36.20
17208;DHT22;8720;48.488;9.202;2022-09-02T11:04:19;24.20;36.00
17208;DHT22;8720;48.488;9.202;2022-09-02T11:06:59;24.20;36.60
17208;DHT22;8720;48.488;9.202;2022-09-02T11:09:35;24.30;36.50
17208;DHT22;8720;48.488;9.202;2022-09-02T11:12:08;24.30;36.30
17208;DHT22;8720;48.488;9.202;2022-09-02T11:14:51;24.30;36.50
17208;DHT22;8720;48.488;9.202;2022-09-02T11:17:29;24.30;36.20
17208;DHT22;8720;48.488;9.202;2022-09-02T11:20:08;24.40;36.30
17208;DHT22;8720;48.488;9.202;2022-09-02T11:22:50;24.40;36.40
17208;DHT22;8720;48.488;9.202;2022-09-02T11:25:26;24.40;36.50
17208;DHT22;8720;48.488;9.202;2022-09-02T11:28:03;24.40;37.00
17208;DHT22;8720;48.488;9.202;2022-09-02T11:30:46;24.50;37.40
17208;DHT22;8720;48.488;9.202;2022-09-02T11:33:22;24.50;37.20
17208;DHT22;8720;48.488;9.202;2022-09-02T11:35:57;24.50;36.80
17208;DHT22;8720;48.488;9.202;2022-09-02T11:38:36;24.60;36.70
17208;DHT22;8720;48.488;9.202;2022-09-02T11:41:29;24.70;36.40
17208;DHT22;8720;48.488;9.202;2022-09-02T11:51:36;24.80;36.20
17208;DHT22;8720;48.488;9.202;2022-09-02T11:54:17;24.80;36.20
17208;DHT22;8720;48.488;9.202;2022-09-02T11:56:49;24.90;36.20
17208;DHT22;8720;48.488;9.202;2022-09-02T12:02:42;24.90;35.80
17208;DHT22;8720;48.488;9.202;2022-09-02T12:05:45;24.90;36.10
17208;DHT22;8720;48.488;9.202;2022-09-02T12:11:49;24.90;35.60
17208;DHT22;8720;48.488;9.202;2022-09-02T12:21:05;25.10;35.60
17208;DHT22;8720;48.488;9.202;2022-09-02T12:27:10;25.20;36.20
17208;DHT22;8720;48.488;9.202;2022-09-02T12:29:49;25.30;35.30
17208;DHT22;8720;48.488;9.202;2022-09-02T12:35:47;25.30;34.80
17208;DHT22;8720;48.488;9.202;2022-09-02T12:38:38;25.40;35.30
17208;DHT22;8720;48.488;9.202;2022-09-02T12:41:27;25.40;35.00
17208;DHT22;8720;48.488;9.202;2022-09-02T12:44:16;25.40;35.30
17208;DHT22;8720;48.488;9.202;2022-09-02T12:46:59;25.50;35.10
17208;DHT22;8720;48.488;9.202;2022-09-02T12:49:47;25.50;35.40
17208;DHT22;8720;48.488;9.202;2022-09-02T12:52:45;25.50;35.70
17208;DHT22;8720;48.488;9.202;2022-09-02T12:55:21;25.60;35.70
17208;DHT22;8720;48.488;9.202;2022-09-02T12:57:54;25.70;35.60
17208;DHT22;8720;48.488;9.202;2022-09-02T13:00:42;25.70;35.50
17208;DHT22;8720;48.488;9.202;2022-09-02T13:06:30;25.80;35.00
17208;DHT22;8720;48.488;9.202;2022-09-02T13:09:21;25.80;35.10
17208;DHT22;8720;48.488;9.202;2022-09-02T13:12:47;25.80;35.00
17208;DHT22;8720;48.488;9.202;2022-09-02T13:19:00;25.90;35.20
17208;DHT22;8720;48.488;9.202;2022-09-02T13:22:16;26.00;35.30
17208;DHT22;8720;48.488;9.202;2022-09-02T13:25:26;26.00;35.10
17208;DHT22;8720;48.488;9.202;2022-09-02T13:31:28;26.10;34.90
17208;DHT22;8720;48.488;9.202;2022-09-02T13:33:57;26.20;34.80
17208;DHT22;8720;48.488;9.202;2022-09-02T13:36:28;26.20;34.70
17208;DHT22;8720;48.488;9.202;2022-09-02T13:39:09;26.20;34.80
17208;DHT22;8720;48.488;9.202;2022-09-02T13:41:38;26.20;34.60
17208;DHT22;8720;48.488;9.202;2022-09-02T13:44:07;26.30;34.40
17208;DHT22;8720;48.488;9.202;2022-09-02T13:46:45;26.20;34.30
17208;DHT22;8720;48.488;9.202;2022-09-02T13:49:22;26.20;33.80
17208;DHT22;8720;48.488;9.202;2022-09-02T13:51:54;26.20;34.00
17208;DHT22;8720;48.488;9.202;2022-09-02T13:54:33;26.20;34.40
17208;DHT22;8720;48.488;9.202;2022-09-02T13:57:04;26.20;34.20
17208;DHT22;8720;48.488;9.202;2022-09-02T13:59:35;26.20;34.30
17208;DHT22;8720;48.488;9.202;2022-09-02T14:02:23;26.20;34.20
17208;DHT22;8720;48.488;9.202;2022-09-02T14:04:56;26.20;34.10
17208;DHT22;8720;48.488;9.202;2022-09-02T14:07:29;26.20;34.70
17208;DHT22;8720;48.488;9.202;2022-09-02T14:10:03;26.20;34.20
17208;DHT22;8720;48.488;9.202;2022-09-02T14:12:35;26.20;34.10
17208;DHT22;8720;48.488;9.202;2022-09-02T14:15:07;26.20;33.90
17208;DHT22;8720;48.488;9.202;2022-09-02T14:20:16;26.30;34.40
17208;DHT22;8720;48.488;9.202;2022-09-02T14:22:52;26.30;33.90
17208;DHT22;8720;48.488;9.202;2022-09-02T14:25:21;26.30;33.70
17208;DHT22;8720;48.488;9.202;2022-09-02T14:27:51;26.30;33.90
17208;DHT22;8720;48.488;9.202;2022-09-02T14:30:30;26.30;34.50
17208;DHT22;8720;48.488;9.202;2022-09-02T14:33:19;26.30;34.00
17208;DHT22;8720;48.488;9.202;2022-09-02T14:35:57;26.30;34.10
17208;DHT22;8720;48.488;9.202;2022-09-02T14:38:27;26.30;34.10
17208;DHT22;8720;48.488;9.202;2022-09-02T14:41:01;26.30;34.10
17208;DHT22;8720;48.488;9.202;2022-09-02T14:43:39;26.30;33.90
17208;DHT22;8720;48.488;9.202;2022-09-02T14:46:16;26.30;33.70
17208;DHT22;8720;48.488;9.202;2022-09-02T14:48:53;26.30;33.70
17208;DHT22;8720;48.488;9.202;2022-09-02T14:51:32;26.30;33.80
17208;DHT22;8720;48.488;9.202;2022-09-02T14:54:04;26.30;33.70
17208;DHT22;8720;48.488;9.202;2022-09-02T14:56:47;26.30;33.70
17208;DHT22;8720;48.488;9.202;2022-09-02T14:59:17;26.40;33.40
17208;DHT22;8720;48.488;9.202;2022-09-02T15:01:47;26.40;33.60
17208;DHT22;8720;48.488;9.202;2022-09-02T15:04:16;26.40;33.40
17208;DHT22;8720;48.488;9.202;2022-09-02T15:06:46;26.40;33.70
17208;DHT22;8720;48.488;9.202;2022-09-02T15:09:15;26.40;33.60
17208;DHT22;8720;48.488;9.202;2022-09-02T15:11:45;26.40;33.60
17208;DHT22;8720;48.488;9.202;2022-09-02T15:14:16;26.40;33.40
17208;DHT22;8720;48.488;9.202;2022-09-02T15:16:43;26.40;33.50
17208;DHT22;8720;48.488;9.202;2022-09-02T15:19:11;26.40;33.50
17208;DHT22;8720;48.488;9.202;2022-09-02T15:21:38;26.40;33.60
17208;DHT22;8720;48.488;9.202;2022-09-02T15:24:07;26.40;33.60
17208;DHT22;8720;48.488;9.202;2022-09-02T15:26:34;26.40;33.60
17208;DHT22;8720;48.488;9.202;2022-09-02T15:29:02;26.40;33.60
17208;DHT22;8720;48.488;9.202;2022-09-02T15:31:30;26.40;33.80
17208;DHT22;8720;48.488;9.202;2022-09-02T15:33:57;26.40;33.70
17208;DHT22;8720;48.488;9.202;2022-09-02T15:36:24;26.40;33.60
17208;DHT22;8720;48.488;9.202;2022-09-02T15:38:52;26.30;33.30
17208;DHT22;8720;48.488;9.202;2022-09-02T15:41:23;26.30;33.50
17208;DHT22;8720;48.488;9.202;2022-09-02T15:43:51;26.30;33.60
17208;DHT22;8720;48.488;9.202;2022-09-02T15:46:23;26.30;33.90
17208;DHT22;8720;48.488;9.202;2022-09-02T15:48:52;26.30;34.00
17208;DHT22;8720;48.488;9.202;2022-09-02T15:51:22;26.30;34.20
17208;DHT22;8720;48.488;9.202;2022-09-02T15:53:54;26.20;33.80
17208;DHT22;8720;48.488;9.202;2022-09-02T15:56:26;26.20;33.70
17208;DHT22;8720;48.488;9.202;2022-09-02T15:58:55;26.20;33.80
17208;DHT22;8720;48.488;9.202;2022-09-02T16:01:24;26.20;34.00
17208;DHT22;8720;48.488;9.202;2022-09-02T16:03:52;26.10;33.90
17208;DHT22;8720;48.488;9.202;2022-09-02T16:06:20;26.10;34.00
17208;DHT22;8720;48.488;9.202;2022-09-02T16:08:47;26.00;34.20
17208;DHT22;8720;48.488;9.202;2022-09-02T16:11:15;26.00;34.20
17208;DHT22;8720;48.488;9.202;2022-09-02T16:13:44;26.00;33.80
17208;DHT22;8720;48.488;9.202;2022-09-02T16:16:12;26.00;33.90
17208;DHT22;8720;48.488;9.202;2022-09-02T16:18:41;26.00;33.90
17208;DHT22;8720;48.488;9.202;2022-09-02T16:21:11;25.90;33.90
17208;DHT22;8720;48.488;9.202;2022-09-02T16:23:38;26.00;34.20
17208;DHT22;8720;48.488;9.202;2022-09-02T16:26:08;25.90;34.10
17208;DHT22;8720;48.488;9.202;2022-09-02T16:28:37;25.90;34.10
17208;DHT22;8720;48.488;9.202;2022-09-02T16:31:09;25.90;34.50
17208;DHT22;8720;48.488;9.202;2022-09-02T16:33:38;25.90;34.40
17208;DHT22;8720;48.488;9.202;2022-09-02T16:36:07;25.90;34.30
17208;DHT22;8720;48.488;9.202;2022-09-02T16:38:34;26.00;34.60
17208;DHT22;8720;48.488;9.202;2022-09-02T16:41:02;26.00;34.60
17208;DHT22;8720;48.488;9.202;2022-09-02T16:43:31;26.00;35.20
17208;DHT22;8720;48.488;9.202;2022-09-02T16:45:59;26.00;34.40
17208;DHT22;8720;48.488;9.202;2022-09-02T16:48:31;26.00;34.70
17208;DHT22;8720;48.488;9.202;2022-09-02T16:51:02;26.00;34.70
17208;DHT22;8720;48.488;9.202;2022-09-02T16:53:31;25.90;34.90
17208;DHT22;8720;48.488;9.202;2022-09-02T16:55:58;25.90;34.80
17208;DHT22;8720;48.488;9.202;2022-09-02T16:58:28;25.90;34.80
17208;DHT22;8720;48.488;9.202;2022-09-02T17:00:56;25.80;34.70
17208;DHT22;8720;48.488;9.202;2022-09-02T17:03:24;25.80;35.00
17208;DHT22;8720;48.488;9.202;2022-09-02T17:05:53;25.70;34.80
17208;DHT22;8720;48.488;9.202;2022-09-02T17:08:20;25.70;34.80